Tuesday, April 24, 2018, 4:42 AM EDT
Back to Local

KHYA, Hyannis Barnstable Boardmn

Location: West Yarmouth, MA, United States Lat: 41.667
Local Time: 4:42 AM EDT ( 8:42 GMT) Lon: -70.267
Time Zone: US/Eastern Elev: 52 ft

Show me the last for .
Show Decoded

2018-04-24 03:56 METAR KHYA 240756Z AUTO 04003KT 10SM CLR 01/00 A3042 RMK AO2 SLP302 T00110000 =
2018-04-24 02:56 METAR KHYA 240656Z AUTO 00000KT 10SM CLR 02/01 A3042 RMK AO2 SLP302 T00220011 =
2018-04-24 01:56 METAR KHYA 240556Z AUTO 19005KT 10SM CLR 06/04 A3043 RMK AO2 SLP304 T00610039
                 10078 20050 58010 =
2018-04-24 00:56 METAR KHYA 240456Z AUTO 20005KT 10SM CLR 06/04 A3045 RMK AO2 SLP312 T00610044
                 401610000 =
2018-04-23 23:56 METAR KHYA 240356Z AUTO 20004KT 10SM CLR 07/04 A3045 RMK AO2 SLP310 T00670044 =
2018-04-23 22:56 METAR KHYA 240256Z AUTO 21005KT 10SM CLR 07/04 A3046 RMK AO2 SLP314 T00670039
                 50001 =
2018-04-23 21:56 METAR KHYA 240156Z 20005KT 10SM CLR 07/03 A3046 RMK AO2 SLP317 T00720033 =
2018-04-23 20:56 METAR KHYA 240056Z 19006KT 10SM CLR 08/02 A3047 RMK AO2 SLP318 T00780022 =
2018-04-23 19:56 METAR KHYA 232356Z 19004KT 10SM CLR 08/01 A3045 RMK AO2 SLP313 T00780011 10161
                 20078 53002 =
2018-04-23 18:56 METAR KHYA 232256Z 18005KT 10SM CLR 09/01 A3046 RMK AO2 SLP315 T00890006 =
2018-04-23 17:56 METAR KHYA 232156Z 15007KT 10SM CLR 11/M03 A3044 RMK AO2 SLP309 T01111028 =
2018-04-23 16:56 METAR KHYA 232056Z 15008KT 10SM CLR 12/M07 A3045 RMK AO2 SLP311 T01221067 55006
                 =
2018-04-23 15:56 METAR KHYA 231956Z 14011KT 10SM CLR 13/M02 A3044 RMK AO2 SLP309 T01281022 =
2018-04-23 14:56 METAR KHYA 231856Z 01006KT 10SM CLR 16/M08 A3045 RMK AO2 SLP312 T01561078 =
2018-04-23 13:56 METAR KHYA 231756Z 02006KT 10SM CLR 15/M08 A3047 RMK AO2 SLP318 T01501078 10150
                 20089 56008 =
2018-04-23 12:56 METAR KHYA 231656Z 04007KT 10SM CLR 14/M06 A3047 RMK AO2 SLP319 T01391056 =
2018-04-23 11:56 METAR KHYA 231556Z 02007KT 10SM CLR 13/M04 A3048 RMK AO2 SLP323 T01331044 =
2018-04-23 10:56 METAR KHYA 231456Z 36008KT 10SM CLR 12/M03 A3049 RMK AO2 SLP326 T01221033 51010
                 =
2018-04-23 09:56 METAR KHYA 231356Z 01010KT 10SM CLR 12/M02 A3049 RMK AO2 SLP324 T01171022 =
2018-04-23 08:56 METAR KHYA 231256Z 01007KT 10SM CLR 11/01 A3047 RMK AO2 SLP320 T01060006 =
2018-04-23 07:56 METAR KHYA 231156Z 35008KT 10SM CLR 09/02 A3046 RMK AO2 SLP316 T00890017 10089
                 20000 51021 =
2018-04-23 06:56 METAR KHYA 231056Z 34006KT 10SM CLR 07/02 A3044 RMK AO2 SLP310 T00720017 =
2018-04-23 05:56 METAR KHYA 230956Z 34006KT 10SM CLR 06/02 A3042 RMK AO2 SLP301 T00560017 =
2018-04-23 04:56 METAR KHYA 230856Z AUTO 33007KT 10SM CLR 06/01 A3040 RMK AO2 SLP294 T00610011
                 53010 =

Support USWX by starting your Amazon purchase here.